Cuaca Aktual Bandara Mali

Waktu Pengamatan : 2022-12-09 09:00:00 WITA


DAY-CLEAR-CLOUDY
Cerah - berawan
Suhu Udara
32 °C
Titik Embun
24 °C

Tekanan Udara 1008 hPa
Jarak Pandang >=10 km

Tenggara
Arah Angin
dari Tenggara
Kec. Angin
7.4 km/jam
METAR Terkini : METAR WATM 090100Z 15004KT 9999 FEW020 32/24 Q1008|NOSIG=